Time;durP1;ratioP1;P1;durP2;ratioP2;P2;SDS_P1;SDS_P2;PMS_P1;PMS_P2;Temp;Humidity;BMP_temperature;BMP_pressure;BME280_temperature;BME280_humidity;BME280_pressure;Samples;Min_cycle;Max_cycle;Signal;HPM_P1;HPM_P2
2022/09/15 00:01:31;;;;;;;8.73;4.60;;;16.50;99.90;;;;;;5034818;28;20029;-74
2022/09/15 00:03:57;;;;;;;14.70;4.82;;;16.40;99.90;;;;;;5033958;28;20110;-73
2022/09/15 00:06:23;;;;;;;11.32;4.97;;;16.40;99.90;;;;;;5033254;28;20038;-72
2022/09/15 00:08:48;;;;;;;13.85;4.88;;;16.50;99.90;;;;;;5032481;28;20034;-71
2022/09/15 00:11:21;;;;;;;12.25;4.43;;;16.30;99.90;;;;;;5033300;28;20141;-73
2022/09/15 00:13:47;;;;;;;9.10;4.57;;;16.30;99.90;;;;;;5051877;28;20552;-73
2022/09/15 00:16:14;;;;;;;12.27;5.28;;;16.30;99.90;;;;;;5037796;28;20112;-72
2022/09/15 00:18:40;;;;;;;15.18;5.57;;;16.40;99.90;;;;;;5024558;28;20026;-73
2022/09/15 00:21:08;;;;;;;12.00;5.05;;;16.40;99.90;;;;;;5032202;28;20103;-71
2022/09/15 00:23:35;;;;;;;11.13;5.28;;;16.20;99.90;;;;;;5032463;28;20024;-72
2022/09/15 00:26:01;;;;;;;13.23;5.70;;;16.30;99.90;;;;;;5031672;28;20463;-73
2022/09/15 00:28:27;;;;;;;15.30;5.47;;;16.30;99.90;;;;;;5034151;28;20033;-72
2022/09/15 00:30:54;;;;;;;13.32;5.32;;;16.00;99.90;;;;;;5032023;28;20096;-73
2022/09/15 00:33:21;;;;;;;12.82;5.93;;;15.90;99.90;;;;;;5032181;28;20044;-72
2022/09/15 00:35:49;;;;;;;12.57;4.73;;;16.00;99.90;;;;;;5032156;28;20021;-73
2022/09/15 00:38:16;;;;;;;;;;;16.10;99.90;;;;;;5015120;28;20120;-75
2022/09/15 00:40:47;;;;;;;9.88;6.00;;;15.90;99.90;;;;;;5032326;28;19909;-73
2022/09/15 00:43:14;;;;;;;11.52;5.53;;;16.00;99.90;;;;;;5032293;28;20045;-74
2022/09/15 00:45:40;;;;;;;12.18;5.90;;;16.00;99.90;;;;;;5032166;28;20030;-73
2022/09/15 00:48:11;;;;;;;15.02;5.97;;;16.10;99.90;;;;;;5031827;28;20128;-74
2022/09/15 00:50:38;;;;;;;20.30;5.93;;;16.10;99.90;;;;;;5031859;28;20330;-73
2022/09/15 00:53:07;;;;;;;11.10;5.25;;;16.10;99.90;;;;;;5032341;28;20022;-74
2022/09/15 00:55:39;;;;;;;14.20;5.18;;;16.10;99.90;;;;;;5016432;28;20523;-72
2022/09/15 00:58:11;;;;;;;12.98;5.57;;;16.10;99.90;;;;;;5031558;28;20105;-73
2022/09/15 01:00:42;;;;;;;11.63;5.38;;;16.10;99.90;;;;;;5024004;28;20137;-74
2022/09/15 01:03:08;;;;;;;15.02;5.70;;;16.10;99.90;;;;;;5031412;28;20045;-73
2022/09/15 01:05:43;;;;;;;17.52;5.43;;;16.00;99.90;;;;;;5031335;28;20041;-73
2022/09/15 01:08:33;;;;;;;14.02;5.72;;;16.00;99.90;;;;;;5031969;28;20028;-74
2022/09/15 01:10:59;;;;;;;16.92;5.82;;;16.10;99.90;;;;;;5051456;28;20434;-73
2022/09/15 01:13:25;;;;;;;15.05;6.07;;;16.00;99.90;;;;;;5034899;28;20025;-73
2022/09/15 01:15:56;;;;;;;18.60;6.55;;;16.00;99.90;;;;;;5031252;28;20028;-74
2022/09/15 01:18:45;;;;;;;12.02;5.55;;;16.00;99.90;;;;;;5013630;28;20116;-74
2022/09/15 01:21:16;;;;;;;13.02;5.85;;;16.00;99.90;;;;;;5031144;28;20030;-74
2022/09/15 01:24:23;;;;;;;11.43;5.68;;;16.10;99.90;;;;;;5031202;28;20028;-74
2022/09/15 01:26:57;;;;;;;15.32;6.10;;;16.00;99.90;;;;;;4986888;28;20064;-73
2022/09/15 01:29:38;;;;;;;10.70;5.85;;;16.00;99.90;;;;;;5031731;28;20029;-74
2022/09/15 01:35:14;;;;;;;13.38;5.75;;;16.00;99.90;;;;;;5032001;28;20108;-73
2022/09/15 01:37:49;;;;;;;11.65;5.97;;;15.90;99.90;;;;;;5050802;28;20070;-74
2022/09/15 01:40:17;;;;;;;16.48;6.78;;;15.90;99.90;;;;;;5044713;28;20082;-72
2022/09/15 01:42:44;;;;;;;;;;;15.80;99.90;;;;;;5051126;28;20045;-74
2022/09/15 01:45:17;;;;;;;14.43;6.05;;;15.70;99.90;;;;;;5056686;28;20317;-73
2022/09/15 01:47:46;;;;;;;15.02;7.03;;;15.70;99.90;;;;;;5070405;28;20025;-73
2022/09/15 01:50:16;;;;;;;16.08;6.40;;;15.60;99.90;;;;;;5070930;28;20279;-74
2022/09/15 01:52:45;;;;;;;11.45;6.35;;;15.70;99.90;;;;;;5053112;28;20079;-74
2022/09/15 01:55:17;;;;;;;15.45;7.15;;;15.80;99.90;;;;;;5070377;28;20028;-73
2022/09/15 01:57:44;;;;;;;16.35;6.63;;;15.70;99.90;;;;;;5070473;28;20047;-72
2022/09/15 02:00:10;;;;;;;11.40;6.03;;;15.70;99.90;;;;;;5070429;28;20481;-72
2022/09/15 02:02:42;;;;;;;15.73;6.03;;;15.80;99.90;;;;;;5043382;28;20045;-73
2022/09/15 02:05:30;;;;;;;14.82;7.13;;;15.80;99.90;;;;;;5031266;28;20025;-72
2022/09/15 02:08:05;;;;;;;;;;;15.70;99.90;;;;;;5030887;28;20034;-73
2022/09/15 02:10:43;;;;;;;18.80;7.28;;;15.70;99.90;;;;;;5030377;28;19948;-72
2022/09/15 02:13:37;;;;;;;17.20;7.40;;;15.50;99.90;;;;;;5029302;28;20083;-73
2022/09/15 02:16:14;;;;;;;16.88;7.95;;;15.50;99.90;;;;;;5030277;28;20091;-73
2022/09/15 02:18:47;;;;;;;13.95;7.13;;;15.60;99.90;;;;;;5030297;28;20333;-73
2022/09/15 02:21:19;;;;;;;13.93;7.60;;;15.60;99.90;;;;;;5030541;28;20033;-72
2022/09/15 02:23:52;;;;;;;14.02;7.30;;;15.60;99.90;;;;;;5029204;28;20101;-75
2022/09/15 02:26:23;;;;;;;17.55;7.68;;;15.60;99.90;;;;;;5030585;28;20041;-73
2022/09/15 02:28:50;;;;;;;16.52;8.00;;;15.60;99.90;;;;;;5030299;28;20041;-73
2022/09/15 02:31:19;;;;;;;20.90;8.75;;;15.50;99.90;;;;;;5030101;28;20037;-73
2022/09/15 02:33:52;;;;;;;18.00;7.70;;;15.30;99.90;;;;;;5029815;28;20060;-73
2022/09/15 02:36:20;;;;;;;19.42;7.82;;;15.40;99.90;;;;;;5045400;28;20068;-73
2022/09/15 02:38:53;;;;;;;21.45;8.00;;;15.30;99.90;;;;;;5029905;28;20037;-73
2022/09/15 02:41:19;;;;;;;14.60;7.78;;;15.40;99.90;;;;;;5030395;28;20041;-73
2022/09/15 02:43:48;;;;;;;17.75;7.35;;;15.30;99.90;;;;;;5029874;28;20375;-73
2022/09/15 02:46:15;;;;;;;17.30;7.95;;;15.40;99.90;;;;;;5029930;28;20037;-74
2022/09/15 02:48:41;;;;;;;15.87;6.90;;;15.50;99.90;;;;;;5030049;28;20041;-74
2022/09/15 02:51:10;;;;;;;19.45;8.25;;;15.40;99.90;;;;;;5045184;28;20091;-74
2022/09/15 02:53:36;;;;;;;11.48;7.30;;;15.40;99.90;;;;;;5030265;28;20037;-73
2022/09/15 02:56:08;;;;;;;14.75;7.43;;;15.30;99.90;;;;;;5030306;28;20036;-74
2022/09/15 02:58:35;;;;;;;11.10;7.45;;;15.40;99.90;;;;;;5045614;28;20038;-74
2022/09/15 03:01:12;;;;;;;15.73;7.55;;;15.30;99.90;;;;;;5031232;28;20040;-74
2022/09/15 03:03:37;;;;;;;15.05;7.85;;;15.30;99.90;;;;;;5061664;28;20049;-73
2022/09/15 03:06:16;;;;;;;17.10;7.22;;;15.30;99.90;;;;;;5073676;28;20098;-74
2022/09/15 03:08:57;;;;;;;15.43;8.07;;;15.40;99.90;;;;;;5073530;28;20055;-73
2022/09/15 03:11:25;;;;;;;19.17;8.23;;;15.40;99.90;;;;;;5073972;28;20470;-74
2022/09/15 03:13:57;;;;;;;15.35;7.38;;;15.40;99.90;;;;;;5073630;28;20040;-74
2022/09/15 03:16:24;;;;;;;12.43;7.47;;;15.40;99.90;;;;;;5073549;28;20034;-73
2022/09/15 03:18:51;;;;;;;16.23;7.57;;;15.40;99.90;;;;;;5073258;28;20166;-74
2022/09/15 03:21:17;;;;;;;14.45;7.32;;;15.40;99.90;;;;;;5073099;28;20042;-73
2022/09/15 03:23:43;;;;;;;12.93;7.70;;;15.40;99.90;;;;;;5055335;28;20020;-73
2022/09/15 03:26:10;;;;;;;16.73;6.43;;;15.40;99.90;;;;;;5073543;28;20103;-74
2022/09/15 03:28:37;;;;;;;17.83;7.78;;;15.40;99.90;;;;;;5073128;28;20024;-73
2022/09/15 03:31:09;;;;;;;13.50;7.05;;;15.40;99.90;;;;;;5072875;28;20085;-74
2022/09/15 03:33:36;;;;;;;16.63;7.20;;;15.40;99.90;;;;;;5055190;28;20036;-73
2022/09/15 03:36:02;;;;;;;13.57;7.30;;;15.40;99.90;;;;;;5055129;28;20197;-73
2022/09/15 03:38:27;;;;;;;17.10;8.07;;;15.40;99.90;;;;;;5072962;28;20024;-73
2022/09/15 03:41:03;;;;;;;13.60;7.38;;;15.40;99.90;;;;;;5074129;28;20423;-73
2022/09/15 03:43:30;;;;;;;18.83;7.75;;;15.40;99.90;;;;;;5072941;28;20103;-73
2022/09/15 03:45:57;;;;;;;13.40;7.80;;;15.40;99.90;;;;;;5072738;28;20290;-73
2022/09/15 03:48:23;;;;;;;12.98;7.28;;;15.40;99.90;;;;;;5072629;28;20536;-73
2022/09/15 03:50:50;;;;;;;15.82;7.15;;;15.50;99.90;;;;;;5072403;28;20137;-73
2022/09/15 03:53:16;;;;;;;19.92;7.97;;;15.50;99.90;;;;;;5073060;28;20399;-73
2022/09/15 03:55:44;;;;;;;13.55;7.40;;;15.40;99.90;;;;;;5072753;28;20085;-73
2022/09/15 03:58:11;;;;;;;14.32;7.60;;;15.40;99.90;;;;;;5072637;28;20033;-73
2022/09/15 04:00:36;;;;;;;16.00;7.57;;;15.40;99.90;;;;;;5072561;28;20331;-73
2022/09/15 04:03:03;;;;;;;12.00;7.13;;;15.30;99.90;;;;;;5072327;28;20051;-73
2022/09/15 04:05:28;;;;;;;12.57;6.82;;;15.40;99.90;;;;;;5054613;28;20146;-73
2022/09/15 04:07:54;;;;;;;16.02;6.85;;;15.40;99.90;;;;;;5073375;28;20046;-73
2022/09/15 04:10:23;;;;;;;13.43;6.22;;;15.40;99.90;;;;;;5072519;28;20359;-73
2022/09/15 04:12:51;;;;;;;14.48;7.05;;;15.30;99.90;;;;;;5071359;28;20375;-73
2022/09/15 04:15:17;;;;;;;12.25;6.25;;;15.10;99.90;;;;;;5072092;28;20029;-73
2022/09/15 04:17:43;;;;;;;12.90;6.07;;;15.00;99.90;;;;;;5072254;28;20017;-74
2022/09/15 04:20:09;;;;;;;13.57;5.90;;;14.90;99.90;;;;;;5072591;28;20350;-73
2022/09/15 04:22:34;;;;;;;12.63;6.32;;;15.00;99.90;;;;;;5072040;28;20044;-73
2022/09/15 04:25:00;;;;;;;14.68;6.30;;;15.00;99.90;;;;;;5071878;28;20033;-73
2022/09/15 04:27:26;;;;;;;13.65;5.55;;;14.90;99.90;;;;;;5071649;28;20465;-73
2022/09/15 04:29:52;;;;;;;11.00;5.82;;;14.90;99.90;;;;;;5071864;28;20374;-73
2022/09/15 04:32:19;;;;;;;15.63;5.78;;;14.90;99.90;;;;;;5054853;28;20085;-74
2022/09/15 04:34:44;;;;;;;16.75;6.03;;;14.90;99.90;;;;;;5071962;28;20459;-72
2022/09/15 04:37:11;;;;;;;13.43;5.57;;;14.80;99.90;;;;;;5054179;28;20056;-74
2022/09/15 04:39:36;;;;;;;12.45;5.95;;;14.80;99.90;;;;;;5071690;28;20106;-73
2022/09/15 04:42:04;;;;;;;13.85;5.30;;;14.80;99.90;;;;;;5071656;28;20405;-73
2022/09/15 04:44:31;;;;;;;9.27;4.68;;;14.90;99.90;;;;;;5053806;28;20485;-73
2022/09/15 04:46:57;;;;;;;10.43;6.13;;;14.90;99.90;;;;;;5054403;28;20420;-72
2022/09/15 04:49:23;;;;;;;11.23;5.00;;;14.90;99.90;;;;;;5071473;28;20471;-73
2022/09/15 04:51:52;;;;;;;10.48;5.97;;;15.00;99.90;;;;;;5071458;28;20360;-72
2022/09/15 04:54:17;;;;;;;9.18;4.97;;;15.00;99.90;;;;;;5071365;28;20036;-75
2022/09/15 04:56:44;;;;;;;11.50;5.13;;;14.90;99.90;;;;;;5071910;28;20034;-73
2022/09/15 04:59:14;;;;;;;14.70;6.47;;;15.00;99.90;;;;;;5071826;28;20186;-72
2022/09/15 05:01:40;;;;;;;12.48;5.50;;;14.90;99.90;;;;;;5071500;28;20114;-73
2022/09/15 05:04:06;;;;;;;8.25;4.97;;;14.90;99.90;;;;;;5071376;28;20040;-72
2022/09/15 05:06:33;;;;;;;11.20;5.85;;;14.80;99.90;;;;;;5071349;28;20340;-74
2022/09/15 05:08:59;;;;;;;14.07;6.15;;;14.90;99.90;;;;;;5071582;28;20040;-72
2022/09/15 05:11:25;;;;;;;12.68;5.55;;;15.00;99.90;;;;;;5054052;28;20301;-74
2022/09/15 05:13:51;;;;;;;16.15;5.65;;;15.10;99.90;;;;;;5071433;28;20032;-73
2022/09/15 05:16:22;;;;;;;14.25;6.28;;;15.20;99.90;;;;;;5053173;28;20051;-74
2022/09/15 05:18:49;;;;;;;9.68;4.93;;;15.20;99.90;;;;;;5071201;28;20447;-73
2022/09/15 05:21:17;;;;;;;9.40;4.50;;;15.20;99.90;;;;;;5071119;28;20032;-73
2022/09/15 05:23:43;;;;;;;14.27;5.63;;;15.30;99.90;;;;;;5070807;28;20020;-73
2022/09/15 05:26:14;;;;;;;12.70;5.32;;;15.20;99.90;;;;;;5071249;28;20119;-72
2022/09/15 05:28:41;;;;;;;13.35;5.10;;;15.20;99.90;;;;;;5053090;28;20021;-74
2022/09/15 05:31:18;;;;;;;10.35;4.75;;;15.10;99.90;;;;;;5069430;28;20041;-74
2022/09/15 05:33:45;;;;;;;14.30;5.88;;;15.10;99.90;;;;;;5070803;28;20029;-72
2022/09/15 05:36:13;;;;;;;21.77;8.57;;;15.10;99.90;;;;;;5053088;28;20063;-75
2022/09/15 05:38:38;;;;;;;18.48;6.35;;;15.20;99.90;;;;;;5053224;28;20371;-75
2022/09/15 05:41:15;;;;;;;12.57;4.72;;;15.20;99.90;;;;;;5071064;28;20021;-73
2022/09/15 05:43:41;;;;;;;10.80;5.03;;;15.20;99.90;;;;;;5070910;28;20035;-75
2022/09/15 05:46:14;;;;;;;10.75;4.90;;;15.30;99.90;;;;;;5070596;28;20036;-75
2022/09/15 05:48:40;;;;;;;10.95;5.25;;;15.20;99.90;;;;;;5070375;28;20412;-73
2022/09/15 05:51:12;;;;;;;12.73;5.20;;;15.20;99.90;;;;;;5070241;28;20479;-74
2022/09/15 05:53:38;;;;;;;10.52;4.15;;;15.30;99.90;;;;;;5052323;28;20623;-74
2022/09/15 05:56:15;;;;;;;10.95;4.43;;;15.30;99.90;;;;;;5070912;28;20033;-74
2022/09/15 05:58:42;;;;;;;10.68;5.28;;;15.30;99.90;;;;;;5070288;28;20097;-73
2022/09/15 06:01:17;;;;;;;9.43;4.10;;;15.40;99.90;;;;;;5070009;28;20363;-75
2022/09/15 06:03:44;;;;;;;13.30;4.78;;;15.40;99.90;;;;;;5070071;28;20041;-74
2022/09/15 06:06:13;;;;;;;11.48;4.65;;;15.50;99.90;;;;;;5070160;28;20492;-75
2022/09/15 06:08:48;;;;;;;13.50;4.28;;;15.60;99.90;;;;;;5070157;28;20040;-73
2022/09/15 06:11:18;;;;;;;14.30;4.53;;;15.50;99.90;;;;;;5070501;28;20529;-74
2022/09/15 06:13:45;;;;;;;8.18;4.65;;;15.60;99.90;;;;;;5070222;28;20075;-72
2022/09/15 06:16:18;;;;;;;11.00;4.00;;;15.60;99.90;;;;;;5070115;28;20175;-74
2022/09/15 06:18:44;;;;;;;12.50;4.45;;;15.70;99.90;;;;;;5070194;28;20029;-76
2022/09/15 06:21:19;;;;;;;16.52;5.88;;;15.60;99.90;;;;;;5052254;28;20107;-75
2022/09/15 06:23:45;;;;;;;17.23;5.05;;;15.70;99.90;;;;;;5050267;28;20363;-72
2022/09/15 06:26:17;;;;;;;11.90;4.28;;;15.70;99.90;;;;;;5050450;28;20013;-73
2022/09/15 06:28:53;;;;;;;6.00;3.58;;;15.60;99.90;;;;;;5049673;28;20039;-72
2022/09/15 06:31:19;;;;;;;11.50;4.32;;;15.70;99.90;;;;;;5049870;28;20045;-75
2022/09/15 06:33:47;;;;;;;9.27;3.97;;;15.60;99.90;;;;;;5049589;28;20036;-73
2022/09/15 06:36:14;;;;;;;11.88;3.92;;;15.70;99.90;;;;;;5049086;28;20037;-72
2022/09/15 06:38:41;;;;;;;8.30;3.88;;;15.60;99.90;;;;;;5050512;28;20028;-74
2022/09/15 06:41:10;;;;;;;10.88;3.92;;;15.60;99.90;;;;;;5051295;28;20307;-74
2022/09/15 06:43:36;;;;;;;10.98;4.28;;;15.60;99.90;;;;;;5033195;28;20094;-73
2022/09/15 06:46:14;;;;;;;9.45;4.20;;;15.50;99.90;;;;;;5050893;28;20025;-73
2022/09/15 06:48:40;;;;;;;13.60;5.10;;;15.50;99.90;;;;;;5050916;28;20036;-74
2022/09/15 06:51:15;;;;;;;11.68;4.00;;;15.50;99.90;;;;;;5051414;28;20033;-74
2022/09/15 06:53:42;;;;;;;9.50;3.72;;;15.50;99.90;;;;;;5051637;28;20355;-74
2022/09/15 06:56:13;;;;;;;13.80;4.45;;;15.70;99.90;;;;;;5051874;28;20036;-74
2022/09/15 06:58:40;;;;;;;14.38;4.45;;;15.70;99.90;;;;;;5051576;28;20094;-73
2022/09/15 07:01:17;;;;;;;9.82;4.30;;;15.80;99.90;;;;;;5050176;28;20039;-73
2022/09/15 07:03:43;;;;;;;10.40;4.18;;;15.80;99.90;;;;;;5050047;28;20044;-74
2022/09/15 07:06:12;;;;;;;10.63;3.90;;;15.90;99.90;;;;;;5049487;28;20041;-74
2022/09/15 07:08:39;;;;;;;16.27;4.53;;;15.70;99.90;;;;;;5049679;28;20439;-73
2022/09/15 07:11:14;;;;;;;12.43;3.70;;;15.80;99.90;;;;;;5050030;28;20021;-74
2022/09/15 07:13:40;;;;;;;12.43;4.32;;;15.80;99.90;;;;;;5049651;28;20025;-74
2022/09/15 07:16:13;;;;;;;9.50;3.63;;;15.90;99.90;;;;;;5049554;28;20061;-74
2022/09/15 07:18:38;;;;;;;7.82;3.50;;;16.00;99.90;;;;;;5049368;28;20062;-73
2022/09/15 07:21:18;;;;;;;8.80;3.75;;;16.00;99.90;;;;;;5031594;28;20080;-74
2022/09/15 07:23:44;;;;;;;9.80;3.78;;;15.90;99.90;;;;;;5049487;28;20521;-75
2022/09/15 07:26:22;;;;;;;10.20;3.55;;;16.10;99.90;;;;;;5049949;28;20506;-73
2022/09/15 07:28:50;;;;;;;8.90;3.67;;;16.00;99.90;;;;;;5049411;28;20021;-73
2022/09/15 07:31:18;;;;;;;9.25;3.15;;;16.20;99.90;;;;;;5049459;28;20455;-73
2022/09/15 07:33:44;;;;;;;10.23;3.42;;;16.10;99.90;;;;;;5031714;28;20398;-74
2022/09/15 07:36:14;;;;;;;13.35;4.00;;;16.20;99.90;;;;;;5031598;28;20033;-74
2022/09/15 07:38:42;;;;;;;9.35;3.05;;;16.30;99.90;;;;;;5049271;28;20040;-72
2022/09/15 07:41:25;;;;;;;11.27;2.95;;;16.40;99.90;;;;;;5049628;28;20044;-76
2022/09/15 07:43:53;;;;;;;10.55;2.80;;;16.30;99.90;;;;;;5049954;28;20045;-74
2022/09/15 07:46:20;;;;;;;7.72;2.60;;;16.20;99.90;;;;;;5032795;28;20374;-75
2022/09/15 07:48:49;;;;;;;7.50;2.63;;;16.20;99.90;;;;;;5053427;28;20674;-75
2022/09/15 07:51:15;;;;;;;10.75;2.25;;;16.00;99.90;;;;;;5052887;28;20486;-74
2022/09/15 07:53:43;;;;;;;7.63;2.30;;;16.20;99.90;;;;;;5034930;28;20035;-74
2022/09/15 07:56:18;;;;;;;6.18;2.42;;;16.30;99.90;;;;;;5053441;28;20075;-76
2022/09/15 07:58:46;;;;;;;9.63;2.95;;;16.40;99.90;;;;;;5035169;28;20387;-72
2022/09/15 08:01:16;;;;;;;12.07;2.50;;;16.30;99.90;;;;;;5053083;28;20037;-76
2022/09/15 08:03:45;;;;;;;5.00;1.83;;;16.30;99.90;;;;;;5053669;28;20159;-74
2022/09/15 08:06:12;;;;;;;12.98;2.42;;;16.40;99.90;;;;;;5035686;28;20459;-74
2022/09/15 08:08:39;;;;;;;9.40;2.72;;;16.50;99.90;;;;;;5034905;28;20028;-74
2022/09/15 08:11:17;;;;;;;4.80;1.80;;;16.50;99.90;;;;;;5036078;28;20025;-76
2022/09/15 08:13:43;;;;;;;7.80;2.25;;;16.50;99.90;;;;;;5052696;28;20029;-77
2022/09/15 08:16:20;;;;;;;16.48;2.58;;;16.50;99.90;;;;;;5052597;28;20128;-73
2022/09/15 08:18:46;;;;;;;7.47;2.43;;;16.50;99.90;;;;;;5052476;28;20087;-82
2022/09/15 08:21:18;;;;;;;9.18;2.72;;;16.70;99.90;;;;;;5052519;28;20033;-73
2022/09/15 08:23:44;;;;;;;9.63;2.65;;;16.70;99.90;;;;;;5051824;28;20331;-73
2022/09/15 08:26:13;;;;;;;6.25;2.28;;;16.60;99.90;;;;;;5052382;28;20028;-75
2022/09/15 08:28:38;;;;;;;12.40;3.00;;;16.70;99.90;;;;;;5051828;28;20041;-74
2022/09/15 08:31:16;;;;;;;10.43;2.10;;;16.80;99.80;;;;;;5034237;28;20106;-73
2022/09/15 08:33:45;;;;;;;5.70;2.15;;;16.80;99.60;;;;;;5051749;28;20041;-73
2022/09/15 08:36:14;;;;;;;6.38;2.30;;;16.90;99.60;;;;;;5051855;28;20369;-73
2022/09/15 08:38:43;;;;;;;6.63;1.75;;;16.80;99.50;;;;;;5051738;28;20052;-73
2022/09/15 08:41:30;;;;;;;10.00;1.98;;;16.80;99.40;;;;;;5051967;28;20063;-74
2022/09/15 08:44:33;;;;;;;7.35;2.50;;;16.80;99.30;;;;;;5034558;28;20500;-74
2022/09/15 08:47:13;;;;;;;9.30;1.88;;;17.00;99.60;;;;;;5051844;28;20120;-73
2022/09/15 08:50:00;;;;;;;6.90;1.83;;;17.00;99.30;;;;;;5034128;28;20448;-73
2022/09/15 08:52:40;;;;;;;13.55;1.90;;;17.00;99.10;;;;;;5051704;28;20025;-73
2022/09/15 08:55:35;;;;;;;6.47;1.90;;;17.10;98.90;;;;;;5033918;28;20459;-73
2022/09/15 08:58:01;;;;;;;7.63;2.00;;;17.00;99.10;;;;;;5016596;28;20478;-74
2022/09/15 09:00:28;;;;;;;6.47;1.88;;;17.10;99.40;;;;;;5051213;28;20029;-73
2022/09/15 09:03:18;;;;;;;11.45;2.05;;;17.30;99.20;;;;;;5051421;28;20352;-73
2022/09/15 09:06:26;;;;;;;11.00;2.05;;;17.40;98.90;;;;;;5051540;28;20021;-74
2022/09/15 09:09:26;;;;;;;7.25;1.98;;;17.50;98.20;;;;;;5051879;28;20033;-74
2022/09/15 09:11:57;;;;;;;7.45;1.75;;;17.40;98.00;;;;;;5029965;28;20026;-74
2022/09/15 09:14:33;;;;;;;12.18;1.95;;;17.60;98.30;;;;;;5031965;28;20411;-72
2022/09/15 09:17:22;;;;;;;10.73;2.25;;;17.90;98.00;;;;;;5050203;28;20068;-74
2022/09/15 09:20:08;;;;;;;9.50;1.65;;;18.30;98.40;;;;;;5051517;28;20159;-73
2022/09/15 09:22:39;;;;;;;7.00;1.38;;;18.40;97.60;;;;;;5050153;28;20561;-73
2022/09/15 09:25:13;;;;;;;7.20;1.92;;;18.40;96.50;;;;;;5051242;28;20056;-73
2022/09/15 09:27:39;;;;;;;7.10;1.35;;;18.50;96.70;;;;;;5050978;28;20479;-73
2022/09/15 09:30:16;;;;;;;6.72;1.80;;;18.90;96.40;;;;;;5066504;28;20138;-73
2022/09/15 09:33:07;;;;;;;6.57;1.30;;;19.10;94.60;;;;;;5050939;28;20040;-74
2022/09/15 09:35:41;;;;;;;4.68;1.30;;;19.30;95.20;;;;;;5049876;28;20618;-75
2022/09/15 09:38:09;;;;;;;10.50;1.90;;;19.50;94.20;;;;;;5051444;28;20025;-73
2022/09/15 09:40:36;;;;;;;8.05;1.58;;;19.60;95.00;;;;;;5051216;28;20029;-75
2022/09/15 09:43:01;;;;;;;6.85;1.70;;;19.80;94.10;;;;;;5050765;28;20044;-74
2022/09/15 09:45:27;;;;;;;8.98;1.58;;;19.80;93.50;;;;;;5050752;28;20029;-73
2022/09/15 09:47:58;;;;;;;13.65;2.58;;;19.50;93.00;;;;;;5050911;28;20040;-73
2022/09/15 09:50:42;;;;;;;4.93;1.58;;;19.60;93.30;;;;;;5051456;28;20032;-73
2022/09/15 09:53:35;;;;;;;6.57;1.20;;;19.70;93.20;;;;;;5051092;28;20052;-73
2022/09/15 09:56:23;;;;;;;8.68;1.27;;;19.70;92.00;;;;;;5048197;28;20033;-73
2022/09/15 09:58:50;;;;;;;9.70;1.40;;;19.70;92.60;;;;;;5051052;28;20052;-73
2022/09/15 10:01:18;;;;;;;6.13;1.25;;;19.60;91.90;;;;;;5050647;28;20048;-72
2022/09/15 10:03:44;;;;;;;7.50;1.17;;;20.10;92.00;;;;;;5050299;28;20102;-72
2022/09/15 10:06:15;;;;;;;8.10;1.13;;;20.70;91.80;;;;;;5050365;28;20032;-72
2022/09/15 10:09:03;;;;;;;9.57;1.30;;;21.10;90.70;;;;;;5050379;28;20355;-74
2022/09/15 10:12:03;;;;;;;5.53;1.15;;;21.00;90.50;;;;;;5049824;28;20024;-73
2022/09/15 10:14:39;;;;;;;11.07;1.30;;;21.30;90.50;;;;;;5035469;28;20033;-73
2022/09/15 10:17:19;;;;;;;6.72;1.55;;;21.80;89.90;;;;;;5050700;28;20080;-74
2022/09/15 10:19:47;;;;;;;2.67;0.90;;;22.10;87.60;;;;;;5050316;28;20111;-75
2022/09/15 10:22:36;;;;;;;9.73;1.35;;;22.00;85.90;;;;;;5050594;28;20033;-74
2022/09/15 10:25:20;;;;;;;4.53;1.05;;;21.40;85.40;;;;;;5050710;28;20554;-74
2022/09/15 10:28:22;;;;;;;5.53;0.98;;;21.30;87.20;;;;;;5050154;28;20041;-74
2022/09/15 10:31:09;;;;;;;3.40;0.93;;;21.10;86.80;;;;;;5008269;28;20044;-74
2022/09/15 10:33:37;;;;;;;4.65;1.13;;;20.80;85.50;;;;;;5050139;28;20040;-77
2022/09/15 10:36:28;;;;;;;6.47;1.73;;;20.70;85.50;;;;;;5050858;28;20371;-72
2022/09/15 10:39:02;;;;;;;7.13;1.48;;;20.20;86.20;;;;;;5050940;28;20037;-73
2022/09/15 10:41:28;;;;;;;8.73;1.65;;;20.40;87.50;;;;;;5050395;28;20021;-74
2022/09/15 10:44:13;;;;;;;6.35;1.92;;;20.30;87.30;;;;;;5050654;28;20391;-73
2022/09/15 10:46:59;;;;;;;8.48;1.23;;;19.80;87.10;;;;;;5050480;28;20055;-73
2022/09/15 10:49:35;;;;;;;6.20;1.03;;;19.50;88.20;;;;;;5050210;28;20075;-76
2022/09/15 10:52:40;;;;;;;6.78;1.20;;;19.40;88.80;;;;;;5065587;28;20106;-74
2022/09/15 10:55:43;;;;;;;9.23;2.10;;;19.20;88.70;;;;;;5049096;28;20033;-75
2022/09/15 10:58:34;;;;;;;7.65;1.42;;;19.30;89.30;;;;;;5049098;28;20025;-75
2022/09/15 11:01:25;;;;;;;5.38;1.50;;;20.10;90.10;;;;;;5049868;28;20032;-73
2022/09/15 11:04:31;;;;;;;2.90;1.15;;;20.60;88.40;;;;;;5049815;28;20132;-75
2022/09/15 11:07:25;;;;;;;8.18;1.20;;;21.50;84.60;;;;;;5027230;28;20355;-74
2022/09/15 11:10:19;;;;;;;6.47;1.77;;;22.30;82.00;;;;;;5049228;28;20055;-75
2022/09/15 11:13:03;;;;;;;6.13;1.40;;;22.50;84.80;;;;;;5049648;28;20032;-73
2022/09/15 11:16:11;;;;;;;6.72;1.50;;;22.50;79.60;;;;;;5049582;28;20033;-74
2022/09/15 11:19:01;;;;;;;5.75;1.65;;;22.00;80.40;;;;;;5021887;28;20030;-73
2022/09/15 11:21:45;;;;;;;5.93;1.65;;;21.40;81.30;;;;;;5013759;28;20190;-74
2022/09/15 11:24:19;;;;;;;5.88;1.52;;;21.40;80.10;;;;;;5053739;28;20044;-73
2022/09/15 11:27:02;;;;;;;4.65;1.35;;;21.20;80.20;;;;;;5052315;28;20028;-73
2022/09/15 11:29:52;;;;;;;5.57;1.77;;;21.80;80.70;;;;;;5053235;28;20029;-77
2022/09/15 11:32:28;;;;;;;3.97;0.95;;;22.10;78.30;;;;;;5054011;28;20079;-74
2022/09/15 11:35:36;;;;;;;5.60;1.25;;;21.60;75.90;;;;;;5053352;28;20025;-75
2022/09/15 11:38:37;;;;;;;6.63;1.50;;;22.30;75.90;;;;;;5014480;28;20033;-74
2022/09/15 11:41:25;;;;;;;4.70;1.00;;;22.60;74.80;;;;;;5052125;28;20438;-74
2022/09/15 11:44:13;;;;;;;5.80;1.52;;;22.40;74.80;;;;;;5053075;28;20072;-71
2022/09/15 11:47:03;;;;;;;8.32;1.85;;;22.20;75.70;;;;;;5052751;28;20065;-74
2022/09/15 11:49:38;;;;;;;5.15;1.83;;;22.10;76.40;;;;;;5053121;28;20115;-75
2022/09/15 11:52:40;;;;;;;6.38;1.08;;;21.70;75.70;;;;;;5051880;28;20141;-73
2022/09/15 11:55:33;;;;;;;4.10;0.90;;;21.10;75.10;;;;;;5053068;28;20093;-73
2022/09/15 11:58:08;;;;;;;4.68;0.77;;;20.90;76.50;;;;;;5053009;28;20033;-76
2022/09/15 12:00:42;;;;;;;4.18;0.90;;;20.50;76.90;;;;;;5053276;28;20032;-72
2022/09/15 12:03:20;;;;;;;9.40;1.45;;;20.00;79.00;;;;;;5052743;28;20049;-74
2022/09/15 12:05:55;;;;;;;6.97;1.52;;;20.00;80.10;;;;;;5052018;28;20037;-73
2022/09/15 12:08:29;;;;;;;2.88;0.80;;;19.90;80.70;;;;;;5052395;28;20033;-74
2022/09/15 12:10:57;;;;;;;5.13;1.33;;;20.10;81.80;;;;;;5053086;28;20104;-75
2022/09/15 12:13:25;;;;;;;5.43;1.13;;;20.20;81.00;;;;;;5052727;28;20021;-72
2022/09/15 12:15:52;;;;;;;5.63;1.20;;;20.00;80.80;;;;;;5051360;28;20112;-73
2022/09/15 12:18:36;;;;;;;6.70;1.00;;;19.60;81.20;;;;;;5052430;28;20056;-74
2022/09/15 12:21:29;;;;;;;5.15;1.20;;;19.40;83.30;;;;;;5053147;28;20055;-74
2022/09/15 12:24:07;;;;;;;10.93;1.02;;;19.10;84.50;;;;;;5051152;28;20037;-76
2022/09/15 12:26:33;;;;;;;4.10;0.77;;;18.90;84.40;;;;;;5051410;28;20021;-73
2022/09/15 12:29:01;;;;;;;7.88;1.00;;;18.80;85.10;;;;;;5052851;28;20029;-74
2022/09/15 12:31:35;;;;;;;8.73;1.50;;;19.00;85.40;;;;;;5052352;28;20040;-74
2022/09/15 12:34:03;;;;;;;3.80;0.95;;;18.90;85.20;;;;;;5051239;28;20379;-74
2022/09/15 12:36:28;;;;;;;4.28;0.90;;;18.90;85.70;;;;;;5052294;28;20090;-73
2022/09/15 12:38:54;;;;;;;5.38;0.82;;;18.90;86.20;;;;;;5052086;28;20045;-75
2022/09/15 12:41:20;;;;;;;11.10;1.38;;;18.80;86.80;;;;;;5068034;28;20124;-75
2022/09/15 12:44:13;;;;;;;2.95;0.90;;;18.90;87.40;;;;;;5067710;28;20343;-73
2022/09/15 12:46:40;;;;;;;3.30;0.68;;;19.00;87.70;;;;;;5050688;28;20174;-73
2022/09/15 12:49:14;;;;;;;7.72;1.15;;;18.90;88.10;;;;;;5051947;28;20037;-74
2022/09/15 12:51:48;;;;;;;5.95;1.00;;;18.80;87.60;;;;;;5051545;28;20127;-75
2022/09/15 12:54:22;;;;;;;7.22;0.60;;;18.80;86.80;;;;;;5052248;28;20110;-75
2022/09/15 12:56:52;;;;;;;4.43;0.77;;;18.80;86.30;;;;;;5052113;28;20033;-75
2022/09/15 12:59:24;;;;;;;2.25;0.93;;;18.90;85.50;;;;;;5052419;28;20064;-75
2022/09/15 13:01:51;;;;;;;9.20;0.95;;;19.00;85.40;;;;;;5050788;28;20383;-75
2022/09/15 13:04:52;;;;;;;3.47;0.82;;;19.20;84.30;;;;;;5050703;28;20037;-75
2022/09/15 13:07:18;;;;;;;3.15;0.90;;;19.30;83.80;;;;;;5051909;28;20032;-73
2022/09/15 13:09:55;;;;;;;1.52;0.40;;;19.50;83.10;;;;;;5050408;28;20114;-75
2022/09/15 13:12:23;;;;;;;3.08;0.82;;;19.40;83.10;;;;;;5050649;28;20040;-74
2022/09/15 13:14:52;;;;;;;3.10;0.70;;;19.40;83.10;;;;;;5051375;28;20104;-73
2022/09/15 13:17:22;;;;;;;4.03;0.70;;;19.20;83.30;;;;;;5051816;28;20025;-73